Time;durP1;ratioP1;P1;durP2;ratioP2;P2;SDS_P1;SDS_P2;PMS_P1;PMS_P2;Temp;Humidity;BMP_temperature;BMP_pressure;BME280_temperature;BME280_humidity;BME280_pressure;Samples;Min_cycle;Max_cycle;Signal;HPM_P1;HPM_P2
2021/12/08 00:02:02;;;;;;;71.45;36.38;;;;;;;;;;5006676;28;20045;-43
2021/12/08 00:04:28;;;;;;;62.58;31.50;;;;;;;;;;5005802;28;20095;-44
2021/12/08 00:06:54;;;;;;;67.70;34.47;;;;;;;;;;5004317;28;20033;-42
2021/12/08 00:09:29;;;;;;;107.55;53.03;;;;;;;;;;5004338;28;20026;-43
2021/12/08 00:14:40;;;;;;;76.93;37.60;;;;;;;;;;5005801;28;20156;-45
2021/12/08 00:17:06;;;;;;;123.20;61.63;;;;;;;;;;5005894;28;20042;-44
2021/12/08 00:19:32;;;;;;;66.95;33.72;;;;;;;;;;5005101;28;20037;-44
2021/12/08 00:21:58;;;;;;;57.28;30.42;;;;;;;;;;5004801;28;20814;-44
2021/12/08 00:24:25;;;;;;;78.60;38.72;;;;;;;;;;5006156;28;20033;-45
2021/12/08 00:26:54;;;;;;;76.38;36.80;;;;;;;;;;5005615;28;20069;-42
2021/12/08 00:29:20;;;;;;;76.38;37.85;;;;;;;;;;5005165;28;20108;-44
2021/12/08 00:31:47;;;;;;;59.95;32.17;;;;;;;;;;5004645;28;20401;-43
2021/12/08 00:34:13;;;;;;;59.75;32.05;;;;;;;;;;5005930;28;20034;-44
2021/12/08 00:36:46;;;;;;;51.15;27.42;;;;;;;;;;5004989;28;20026;-45
2021/12/08 00:39:13;;;;;;;60.22;30.58;;;;;;;;;;5040173;28;20028;-43
2021/12/08 00:41:39;;;;;;;51.92;26.33;;;;;;;;;;5054750;28;20446;-46
2021/12/08 00:44:05;;;;;;;64.75;31.95;;;;;;;;;;5054697;28;20024;-46
2021/12/08 00:46:32;;;;;;;64.30;33.55;;;;;;;;;;5055070;28;20068;-47
2021/12/08 00:48:58;;;;;;;48.13;26.23;;;;;;;;;;5053676;28;20033;-47
2021/12/08 00:51:24;;;;;;;55.25;27.08;;;;;;;;;;5054828;28;20379;-48
2021/12/08 00:53:50;;;;;;;45.65;23.52;;;;;;;;;;5054658;28;20016;-47
2021/12/08 00:56:16;;;;;;;47.70;24.30;;;;;;;;;;5054857;28;20028;-47
2021/12/08 00:58:43;;;;;;;51.65;25.92;;;;;;;;;;5054758;28;20029;-47
2021/12/08 01:01:14;;;;;;;56.65;27.08;;;;;;;;;;5054786;28;20021;-47
2021/12/08 01:03:40;;;;;;;53.03;27.58;;;;;;;;;;5054892;28;20044;-47
2021/12/08 01:06:06;;;;;;;58.55;28.27;;;;;;;;;;5054575;28;20079;-47
2021/12/08 01:08:33;;;;;;;50.47;23.88;;;;;;;;;;5054455;28;20025;-48
2021/12/08 01:11:01;;;;;;;47.75;25.35;;;;;;;;;;5054411;28;20423;-46
2021/12/08 01:13:27;;;;;;;54.92;28.70;;;;;;;;;;5054294;28;20029;-47
2021/12/08 01:15:58;;;;;;;56.33;28.45;;;;;;;;;;5054208;28;20517;-48
2021/12/08 01:18:26;;;;;;;44.00;23.88;;;;;;;;;;5053378;28;20041;-47
2021/12/08 01:20:53;;;;;;;46.95;25.67;;;;;;;;;;5054217;28;20021;-46
2021/12/08 01:23:19;;;;;;;42.85;23.65;;;;;;;;;;5054156;28;20033;-47
2021/12/08 01:25:45;;;;;;;47.15;23.95;;;;;;;;;;5054216;28;20025;-46
2021/12/08 01:28:11;;;;;;;42.33;23.20;;;;;;;;;;5054362;28;20449;-47
2021/12/08 01:30:38;;;;;;;44.20;24.98;;;;;;;;;;5054283;28;20047;-48
2021/12/08 01:33:07;;;;;;;45.45;23.42;;;;;;;;;;5054034;28;20017;-46
2021/12/08 01:35:33;;;;;;;44.33;24.50;;;;;;;;;;5054092;28;20025;-47
2021/12/08 01:38:01;;;;;;;47.80;23.85;;;;;;;;;;5050195;28;20021;-45
2021/12/08 01:40:27;;;;;;;42.45;23.13;;;;;;;;;;5033694;28;20026;-47
2021/12/08 01:42:57;;;;;;;44.97;23.13;;;;;;;;;;5033958;28;20018;-46
2021/12/08 01:48:10;;;;;;;44.65;22.83;;;;;;;;;;5033994;28;20087;-46
2021/12/08 01:50:37;;;;;;;44.33;24.38;;;;;;;;;;5033802;28;20024;-49
2021/12/08 01:53:04;;;;;;;50.00;25.85;;;;;;;;;;5033677;28;20033;-49
2021/12/08 01:55:31;;;;;;;49.70;27.00;;;;;;;;;;5033684;28;20112;-47
2021/12/08 01:57:57;;;;;;;50.35;26.40;;;;;;;;;;5033822;28;20056;-47
2021/12/08 02:00:29;;;;;;;56.92;27.38;;;;;;;;;;5033840;28;20037;-47
2021/12/08 02:02:55;;;;;;;56.45;27.70;;;;;;;;;;5033656;28;20056;-47
2021/12/08 02:05:22;;;;;;;62.08;28.13;;;;;;;;;;5033648;28;20482;-47
2021/12/08 02:07:49;;;;;;;58.65;26.85;;;;;;;;;;5033745;28;20078;-47
2021/12/08 02:10:15;;;;;;;55.25;26.05;;;;;;;;;;5033717;28;20419;-47
2021/12/08 02:12:41;;;;;;;60.28;30.35;;;;;;;;;;5033562;28;20029;-46
2021/12/08 02:15:10;;;;;;;53.30;28.13;;;;;;;;;;5033179;28;20128;-47
2021/12/08 02:17:36;;;;;;;51.03;26.25;;;;;;;;;;5033471;28;20033;-46
2021/12/08 02:20:04;;;;;;;51.67;26.27;;;;;;;;;;5033411;28;20115;-43
2021/12/08 02:22:30;;;;;;;62.75;29.55;;;;;;;;;;5033510;28;20022;-46
2021/12/08 02:24:56;;;;;;;56.08;27.42;;;;;;;;;;5033504;28;20075;-45
2021/12/08 02:27:23;;;;;;;62.00;29.02;;;;;;;;;;5033454;28;20024;-46
2021/12/08 02:30:02;;;;;;;55.50;27.50;;;;;;;;;;5035769;28;20021;-44
2021/12/08 02:46:38;;;;;;;55.17;28.00;;;;;;;;;;5040022;28;20040;-45
2021/12/08 02:49:04;;;;;;;53.45;26.83;;;;;;;;;;5040100;28;20040;-46
2021/12/08 02:51:30;;;;;;;53.08;27.25;;;;;;;;;;5039862;28;20461;-44
2021/12/08 02:53:58;;;;;;;52.00;26.77;;;;;;;;;;5039651;28;20025;-46
2021/12/08 02:56:24;;;;;;;54.20;27.73;;;;;;;;;;5039852;28;20026;-47
2021/12/08 02:58:50;;;;;;;54.90;27.15;;;;;;;;;;5039597;28;20440;-46
2021/12/08 03:01:17;;;;;;;55.30;27.58;;;;;;;;;;5040133;28;20060;-46
2021/12/08 03:03:43;;;;;;;53.45;26.55;;;;;;;;;;5039791;28;20026;-46
2021/12/08 03:06:09;;;;;;;55.20;28.30;;;;;;;;;;5039697;28;20504;-47
2021/12/08 03:08:35;;;;;;;48.17;26.23;;;;;;;;;;5039474;28;20034;-47
2021/12/08 03:11:01;;;;;;;49.83;26.55;;;;;;;;;;5039673;28;20022;-45
2021/12/08 03:13:30;;;;;;;49.63;26.70;;;;;;;;;;5039565;28;20029;-46
2021/12/08 03:15:58;;;;;;;58.47;28.80;;;;;;;;;;5039450;28;20046;-45
2021/12/08 03:18:32;;;;;;;50.47;25.60;;;;;;;;;;5039559;28;20045;-45
2021/12/08 03:20:58;;;;;;;48.47;26.42;;;;;;;;;;5039565;28;20021;-46
2021/12/08 03:23:31;;;;;;;51.70;27.70;;;;;;;;;;5039304;28;20532;-46
2021/12/08 03:25:58;;;;;;;49.50;25.88;;;;;;;;;;5039425;28;20013;-44
2021/12/08 03:28:29;;;;;;;52.67;26.92;;;;;;;;;;5039472;28;20025;-47
2021/12/08 03:33:25;;;;;;;54.90;28.40;;;;;;;;;;5039338;28;20246;-46
2021/12/08 03:35:51;;;;;;;56.17;28.05;;;;;;;;;;5039607;28;20092;-45
2021/12/08 03:38:19;;;;;;;60.95;31.90;;;;;;;;;;5039326;28;20025;-45
2021/12/08 03:40:47;;;;;;;65.78;32.65;;;;;;;;;;5037138;28;20032;-47
2021/12/08 03:43:13;;;;;;;65.65;31.10;;;;;;;;;;5035874;28;20048;-45
2021/12/08 03:45:44;;;;;;;53.45;29.02;;;;;;;;;;5036039;28;20503;-45
2021/12/08 03:48:15;;;;;;;54.88;29.83;;;;;;;;;;5036099;28;20026;-45
2021/12/08 03:50:43;;;;;;;55.70;28.08;;;;;;;;;;5035960;28;20029;-46
2021/12/08 03:53:12;;;;;;;54.88;28.23;;;;;;;;;;5036096;28;20049;-46
2021/12/08 03:55:38;;;;;;;51.83;28.58;;;;;;;;;;5035967;28;20378;-46
2021/12/08 03:58:04;;;;;;;52.83;26.77;;;;;;;;;;5035846;28;20026;-46
2021/12/08 04:00:31;;;;;;;47.90;26.63;;;;;;;;;;5036102;28;20025;-46
2021/12/08 04:02:58;;;;;;;53.08;26.98;;;;;;;;;;5035938;28;20071;-46
2021/12/08 04:05:39;;;;;;;47.28;26.20;;;;;;;;;;5035763;28;20032;-46
2021/12/08 04:08:14;;;;;;;49.30;25.23;;;;;;;;;;5035907;28;20500;-47
2021/12/08 04:10:41;;;;;;;54.40;27.60;;;;;;;;;;5035583;28;20040;-48
2021/12/08 04:13:07;;;;;;;56.30;27.13;;;;;;;;;;5035604;28;20026;-47
2021/12/08 04:15:33;;;;;;;49.05;26.58;;;;;;;;;;5035388;28;20046;-46
2021/12/08 04:18:01;;;;;;;50.80;26.75;;;;;;;;;;5035366;28;20038;-46
2021/12/08 04:20:37;;;;;;;46.33;25.88;;;;;;;;;;5035599;28;20033;-47
2021/12/08 04:23:04;;;;;;;48.90;26.85;;;;;;;;;;5035439;28;20025;-47
2021/12/08 04:25:37;;;;;;;49.55;26.17;;;;;;;;;;5035365;28;20060;-47
2021/12/08 04:28:06;;;;;;;48.92;26.98;;;;;;;;;;5035452;28;20044;-47
2021/12/08 04:30:34;;;;;;;49.65;27.42;;;;;;;;;;5035235;28;20025;-46
2021/12/08 04:33:00;;;;;;;49.42;26.55;;;;;;;;;;5035282;28;20025;-45
2021/12/08 04:35:28;;;;;;;47.67;26.20;;;;;;;;;;5035187;28;20025;-46
2021/12/08 04:37:57;;;;;;;57.20;28.98;;;;;;;;;;5035216;28;20036;-46
2021/12/08 04:45:39;;;;;;;62.40;30.60;;;;;;;;;;5034874;28;20040;-46
2021/12/08 04:53:47;;;;;;;59.30;31.17;;;;;;;;;;5034656;28;20048;-47
2021/12/08 05:07:33;;;;;;;111.43;47.45;;;;;;;;;;5034646;28;20026;-47
2021/12/08 05:10:00;;;;;;;117.05;49.83;;;;;;;;;;5034487;28;20060;-47
2021/12/08 05:12:29;;;;;;;119.70;47.35;;;;;;;;;;5034500;28;20092;-46
2021/12/08 05:15:16;;;;;;;106.72;44.00;;;;;;;;;;5034179;28;20048;-46
2021/12/08 05:17:45;;;;;;;110.85;46.90;;;;;;;;;;5034472;28;20466;-45
2021/12/08 05:20:17;;;;;;;120.68;49.88;;;;;;;;;;5034356;28;20525;-45
2021/12/08 05:22:49;;;;;;;108.50;47.45;;;;;;;;;;5034281;28;20030;-47
2021/12/08 05:25:18;;;;;;;105.85;47.00;;;;;;;;;;5034078;28;20064;-47
2021/12/08 05:27:48;;;;;;;118.75;49.20;;;;;;;;;;5034205;28;20025;-47
2021/12/08 05:30:17;;;;;;;99.28;48.75;;;;;;;;;;5034474;28;20045;-45
2021/12/08 05:32:45;;;;;;;100.78;51.33;;;;;;;;;;5034423;28;20083;-46
2021/12/08 05:35:13;;;;;;;143.77;71.93;;;;;;;;;;5034281;28;20057;-46
2021/12/08 05:37:39;;;;;;;168.05;78.13;;;;;;;;;;5034022;28;20029;-46
2021/12/08 05:40:10;;;;;;;125.85;61.15;;;;;;;;;;5034173;28;20120;-47
2021/12/08 05:42:36;;;;;;;99.18;48.80;;;;;;;;;;5034295;28;20485;-47
2021/12/08 05:45:09;;;;;;;74.60;38.75;;;;;;;;;;5034143;28;20034;-46
2021/12/08 05:47:37;;;;;;;74.85;38.40;;;;;;;;;;5034065;28;20021;-47
2021/12/08 05:50:03;;;;;;;76.90;38.88;;;;;;;;;;5033805;28;20481;-47
2021/12/08 05:52:29;;;;;;;87.80;45.00;;;;;;;;;;5033711;28;20084;-47
2021/12/08 05:54:56;;;;;;;90.95;45.65;;;;;;;;;;5033949;28;20091;-48
2021/12/08 05:57:26;;;;;;;90.75;47.10;;;;;;;;;;5033887;28;20044;-48
2021/12/08 05:59:53;;;;;;;85.65;45.10;;;;;;;;;;5033637;28;20036;-43
2021/12/08 06:02:22;;;;;;;84.88;47.13;;;;;;;;;;5033674;28;20029;-50
2021/12/08 06:04:48;;;;;;;93.95;56.10;;;;;;;;;;5031710;28;20079;-49
2021/12/08 06:07:14;;;;;;;130.30;67.15;;;;;;;;;;5033465;28;20024;-50
2021/12/08 06:09:43;;;;;;;123.05;64.47;;;;;;;;;;5033907;28;20029;-46
2021/12/08 06:12:12;;;;;;;118.95;62.30;;;;;;;;;;5033531;28;20029;-48
2021/12/08 06:14:38;;;;;;;105.90;59.50;;;;;;;;;;5033533;28;20052;-46
2021/12/08 06:17:09;;;;;;;111.93;57.08;;;;;;;;;;5033486;28;20041;-47
2021/12/08 06:19:36;;;;;;;108.60;52.40;;;;;;;;;;5033386;28;20037;-47
2021/12/08 06:22:03;;;;;;;102.22;51.08;;;;;;;;;;5033321;28;20030;-47
2021/12/08 06:24:29;;;;;;;99.70;50.65;;;;;;;;;;5033518;28;20036;-48
2021/12/08 06:26:58;;;;;;;97.95;48.13;;;;;;;;;;5033422;28;20028;-48
2021/12/08 06:29:24;;;;;;;110.72;54.22;;;;;;;;;;5033257;28;20021;-48
2021/12/08 06:31:52;;;;;;;140.93;65.38;;;;;;;;;;5033330;28;20445;-48
2021/12/08 06:34:19;;;;;;;137.70;63.25;;;;;;;;;;5033532;28;20030;-48
2021/12/08 06:36:49;;;;;;;96.03;47.08;;;;;;;;;;5033248;28;20017;-48
2021/12/08 06:39:23;;;;;;;92.40;45.72;;;;;;;;;;5033252;28;20033;-46
2021/12/08 06:41:56;;;;;;;79.60;42.60;;;;;;;;;;5033364;28;20029;-48
2021/12/08 06:44:30;;;;;;;95.07;47.17;;;;;;;;;;5033404;28;20470;-48
2021/12/08 06:46:57;;;;;;;93.13;43.80;;;;;;;;;;5033192;28;20167;-45
2021/12/08 06:49:24;;;;;;;89.07;41.85;;;;;;;;;;5033204;28;20029;-43
2021/12/08 06:52:01;;;;;;;82.72;39.83;;;;;;;;;;5033092;28;20028;-49
2021/12/08 06:54:31;;;;;;;96.82;53.55;;;;;;;;;;5033246;28;20022;-42
2021/12/08 06:57:03;;;;;;;102.68;52.55;;;;;;;;;;5033390;28;20048;-43
2021/12/08 06:59:34;;;;;;;99.05;51.50;;;;;;;;;;5033338;28;20036;-47
2021/12/08 07:02:10;;;;;;;89.68;47.65;;;;;;;;;;5033436;28;20041;-45
2021/12/08 07:04:55;;;;;;;1999.90;999.90;;;;;;;;;;5032028;28;20104;-43
2021/12/08 07:07:23;;;;;;;1999.90;999.90;;;;;;;;;;5033280;28;20021;-43
2021/12/08 07:09:52;;;;;;;1999.90;999.90;;;;;;;;;;5033033;28;20038;-48
2021/12/08 07:12:21;;;;;;;1999.90;999.90;;;;;;;;;;5032931;28;20079;-42
2021/12/08 07:14:50;;;;;;;1999.90;999.90;;;;;;;;;;5033035;28;20069;-45
2021/12/08 07:17:20;;;;;;;107.13;88.20;;;;;;;;;;5034902;28;20099;-42
2021/12/08 07:19:52;;;;;;;81.97;48.97;;;;;;;;;;5036591;28;20026;-49
2021/12/08 07:22:19;;;;;;;;;;;;;;;;;;5037181;28;20021;-47
2021/12/08 07:24:49;;;;;;;73.72;44.17;;;;;;;;;;5036578;28;19905;-46
2021/12/08 07:27:20;;;;;;;71.70;46.15;;;;;;;;;;5036639;28;20024;-48
2021/12/08 07:29:47;;;;;;;69.68;42.53;;;;;;;;;;5036819;28;20025;-44
2021/12/08 07:32:19;;;;;;;58.90;36.88;;;;;;;;;;5036449;28;20025;-42
2021/12/08 07:34:45;;;;;;;57.28;37.15;;;;;;;;;;5036512;28;20029;-42
2021/12/08 07:37:14;;;;;;;52.05;32.47;;;;;;;;;;5036491;28;20071;-40
2021/12/08 07:39:44;;;;;;;52.28;33.40;;;;;;;;;;5036165;28;20068;-41
2021/12/08 07:42:19;;;;;;;54.60;33.25;;;;;;;;;;5036333;28;20465;-42
2021/12/08 07:44:50;;;;;;;55.95;36.22;;;;;;;;;;5036311;28;20025;-42
2021/12/08 07:47:19;;;;;;;55.90;32.92;;;;;;;;;;5036241;28;20029;-41
2021/12/08 07:49:50;;;;;;;54.67;36.47;;;;;;;;;;5036404;28;20457;-42
2021/12/08 07:52:21;;;;;;;49.75;30.35;;;;;;;;;;5036038;28;20057;-41
2021/12/08 07:54:48;;;;;;;42.78;29.83;;;;;;;;;;5035984;28;20025;-42
2021/12/08 07:57:17;;;;;;;60.30;36.83;;;;;;;;;;5035999;28;20028;-45
2021/12/08 07:59:46;;;;;;;54.05;36.08;;;;;;;;;;5035810;28;20056;-43
2021/12/08 08:02:12;;;;;;;49.00;33.80;;;;;;;;;;5035828;28;20025;-40
2021/12/08 08:04:41;;;;;;;42.55;29.90;;;;;;;;;;5035873;28;20026;-40
2021/12/08 08:07:08;;;;;;;42.08;29.50;;;;;;;;;;5036151;28;20052;-42
2021/12/08 08:09:37;;;;;;;42.25;29.73;;;;;;;;;;5035835;28;20052;-41
2021/12/08 08:12:06;;;;;;;39.33;30.80;;;;;;;;;;5035922;28;20025;-43
2021/12/08 08:14:38;;;;;;;49.88;35.10;;;;;;;;;;5035658;28;20040;-44
2021/12/08 08:17:09;;;;;;;54.60;38.05;;;;;;;;;;5035488;28;20126;-41
2021/12/08 08:19:42;;;;;;;43.72;31.25;;;;;;;;;;5035460;28;20538;-41
2021/12/08 08:22:10;;;;;;;43.58;30.95;;;;;;;;;;5035429;28;20022;-42
2021/12/08 08:24:37;;;;;;;40.47;30.00;;;;;;;;;;5035591;28;20036;-43
2021/12/08 08:27:06;;;;;;;39.35;29.67;;;;;;;;;;5035218;28;20024;-43
2021/12/08 08:29:33;;;;;;;39.97;29.75;;;;;;;;;;5035401;28;20561;-42
2021/12/08 08:32:03;;;;;;;44.70;30.13;;;;;;;;;;5035795;28;20029;-42
2021/12/08 08:34:34;;;;;;;39.78;29.08;;;;;;;;;;5035386;28;20057;-43
2021/12/08 08:37:00;;;;;;;41.42;30.73;;;;;;;;;;5034075;28;20082;-42
2021/12/08 08:39:29;;;;;;;45.03;32.38;;;;;;;;;;5035152;28;20030;-43
2021/12/08 08:41:55;;;;;;;44.47;31.67;;;;;;;;;;5033916;28;20036;-42
2021/12/08 08:44:43;;;;;;;38.67;29.77;;;;;;;;;;5033738;28;20486;-42
2021/12/08 08:47:11;;;;;;;40.25;30.77;;;;;;;;;;5035014;28;20041;-42
2021/12/08 08:49:38;;;;;;;45.90;32.22;;;;;;;;;;5035111;28;20028;-43
2021/12/08 08:52:24;;;;;;;44.95;32.88;;;;;;;;;;5034974;28;20017;-41
2021/12/08 08:54:52;;;;;;;43.65;33.42;;;;;;;;;;5033539;28;20025;-42
2021/12/08 08:57:34;;;;;;;45.03;33.38;;;;;;;;;;5035033;28;20470;-42
2021/12/08 09:00:12;;;;;;;40.20;32.05;;;;;;;;;;5034682;28;20052;-42
2021/12/08 09:02:39;;;;;;;42.05;31.65;;;;;;;;;;5034632;28;20151;-42
2021/12/08 09:05:16;;;;;;;80.07;54.50;;;;;;;;;;5034839;28;20021;-41
2021/12/08 09:07:44;;;;;;;122.30;71.10;;;;;;;;;;5034787;28;20025;-42
2021/12/08 09:10:15;;;;;;;116.47;66.35;;;;;;;;;;5034631;28;20034;-42
2021/12/08 09:12:44;;;;;;;110.65;65.88;;;;;;;;;;5034522;28;20071;-42
2021/12/08 09:15:40;;;;;;;63.10;41.95;;;;;;;;;;5034357;28;20409;-42
2021/12/08 09:18:13;;;;;;;39.10;28.60;;;;;;;;;;4973658;28;20490;-42
2021/12/08 09:20:40;;;;;;;38.17;31.58;;;;;;;;;;4973530;28;20105;-42
2021/12/08 09:23:09;;;;;;;40.78;29.65;;;;;;;;;;4973772;28;20054;-42
2021/12/08 09:25:35;;;;;;;43.65;32.90;;;;;;;;;;4973342;28;20586;-43
2021/12/08 09:28:06;;;;;;;34.50;27.50;;;;;;;;;;4973440;28;20035;-43
2021/12/08 09:30:44;;;;;;;41.63;31.10;;;;;;;;;;4973515;28;20053;-42
2021/12/08 09:33:15;;;;;;;30.08;25.92;;;;;;;;;;4957021;28;20030;-43
2021/12/08 09:35:50;;;;;;;30.48;25.05;;;;;;;;;;4973350;28;20043;-42
2021/12/08 09:38:19;;;;;;;28.05;22.92;;;;;;;;;;4973259;28;20109;-40
2021/12/08 09:40:47;;;;;;;29.42;22.65;;;;;;;;;;4972419;28;20085;-42
2021/12/08 09:43:17;;;;;;;34.13;25.27;;;;;;;;;;4973106;28;20467;-42
2021/12/08 09:46:04;;;;;;;32.25;22.85;;;;;;;;;;4973097;28;20117;-42
2021/12/08 09:48:30;;;;;;;30.83;24.80;;;;;;;;;;4973289;28;20070;-42
2021/12/08 09:50:58;;;;;;;29.50;23.35;;;;;;;;;;4973028;28;20027;-42
2021/12/08 09:53:25;;;;;;;28.60;21.98;;;;;;;;;;4976743;28;20054;-40
2021/12/08 09:55:51;;;;;;;26.05;21.08;;;;;;;;;;5033783;28;20044;-44
2021/12/08 09:58:17;;;;;;;30.05;23.27;;;;;;;;;;5033549;28;20079;-42
2021/12/08 10:00:45;;;;;;;23.38;19.80;;;;;;;;;;5033910;28;20033;-43
2021/12/08 10:03:13;;;;;;;24.17;19.25;;;;;;;;;;5033774;28;20053;-42
2021/12/08 10:05:42;;;;;;;20.48;17.13;;;;;;;;;;5033744;28;20382;-41
2021/12/08 10:08:09;;;;;;;22.52;17.35;;;;;;;;;;5033703;28;20024;-42
2021/12/08 10:10:36;;;;;;;22.08;18.85;;;;;;;;;;5033435;28;20508;-42
2021/12/08 10:13:02;;;;;;;23.33;17.95;;;;;;;;;;5033437;28;20075;-42
2021/12/08 10:15:29;;;;;;;22.25;17.50;;;;;;;;;;5033573;28;20052;-42
2021/12/08 10:17:55;;;;;;;24.58;18.52;;;;;;;;;;5033760;28;20033;-42
2021/12/08 10:20:24;;;;;;;23.83;18.33;;;;;;;;;;5033490;28;20087;-42
2021/12/08 10:23:09;;;;;;;23.05;18.52;;;;;;;;;;5033389;28;20466;-42
2021/12/08 10:25:36;;;;;;;25.38;16.77;;;;;;;;;;5033336;28;20026;-43
2021/12/08 10:28:08;;;;;;;25.25;17.70;;;;;;;;;;5033375;28;20032;-44
2021/12/08 10:30:34;;;;;;;;;;;;;;;;;;5033808;28;20036;-40
2021/12/08 10:33:07;;;;;;;30.60;20.63;;;;;;;;;;5033355;28;20381;-44
2021/12/08 10:36:03;;;;;;;24.83;19.10;;;;;;;;;;5033384;28;20420;-43
2021/12/08 10:38:36;;;;;;;25.83;19.38;;;;;;;;;;5032178;28;20068;-42
2021/12/08 10:41:08;;;;;;;34.17;23.17;;;;;;;;;;5033083;28;20069;-43
2021/12/08 10:43:35;;;;;;;34.53;22.30;;;;;;;;;;5033009;28;20033;-42
2021/12/08 10:46:02;;;;;;;31.13;20.25;;;;;;;;;;5033280;28;20030;-41
2021/12/08 10:48:35;;;;;;;29.13;21.13;;;;;;;;;;5033142;28;20028;-41
2021/12/08 10:56:37;;;;;;;29.30;20.67;;;;;;;;;;5037353;28;20132;-41
2021/12/08 10:59:03;;;;;;;33.20;21.17;;;;;;;;;;5037056;28;20033;-41
2021/12/08 11:01:29;;;;;;;27.65;19.58;;;;;;;;;;5036948;28;20030;-41
2021/12/08 11:04:05;;;;;;;30.20;20.30;;;;;;;;;;5036926;28;20447;-44
2021/12/08 11:06:32;;;;;;;47.10;26.15;;;;;;;;;;5035602;28;20036;-43
2021/12/08 11:09:03;;;;;;;38.30;23.95;;;;;;;;;;5036761;28;20417;-41
2021/12/08 11:11:32;;;;;;;34.38;21.88;;;;;;;;;;5036893;28;20055;-41
2021/12/08 11:14:03;;;;;;;36.28;23.05;;;;;;;;;;5035622;28;20095;-43
2021/12/08 11:16:29;;;;;;;32.33;20.15;;;;;;;;;;5036629;28;20053;-42
2021/12/08 11:18:58;;;;;;;31.58;21.33;;;;;;;;;;5036710;28;20026;-41
2021/12/08 11:21:33;;;;;;;34.72;22.42;;;;;;;;;;5036737;28;20057;-42
2021/12/08 11:24:00;;;;;;;33.97;20.95;;;;;;;;;;5035540;28;20479;-41
2021/12/08 11:26:37;;;;;;;33.33;22.10;;;;;;;;;;5036879;28;20397;-41
2021/12/08 11:29:06;;;;;;;37.50;23.75;;;;;;;;;;5036938;28;20021;-41
2021/12/08 11:31:37;;;;;;;42.00;25.67;;;;;;;;;;5036740;28;20025;-41
2021/12/08 11:34:10;;;;;;;43.30;27.83;;;;;;;;;;5036589;28;20032;-41
2021/12/08 11:36:38;;;;;;;42.45;26.80;;;;;;;;;;5036424;28;20508;-41
2021/12/08 11:39:15;;;;;;;45.13;27.23;;;;;;;;;;5036381;28;20477;-43
2021/12/08 11:41:48;;;;;;;49.70;30.38;;;;;;;;;;5036257;28;20056;-42
2021/12/08 11:44:14;;;;;;;47.17;30.00;;;;;;;;;;5036330;28;20026;-41
2021/12/08 11:46:43;;;;;;;46.38;28.30;;;;;;;;;;5036224;28;20025;-42
2021/12/08 11:49:10;;;;;;;64.47;38.10;;;;;;;;;;5036148;28;20022;-42
2021/12/08 11:51:42;;;;;;;52.85;31.67;;;;;;;;;;5036693;28;20056;-41
2021/12/08 11:54:22;;;;;;;48.53;30.60;;;;;;;;;;5036013;28;20017;-42
2021/12/08 11:56:48;;;;;;;51.05;30.45;;;;;;;;;;5036050;28;20105;-41
2021/12/08 11:59:15;;;;;;;46.42;28.95;;;;;;;;;;5035655;28;20033;-41
2021/12/08 12:01:41;;;;;;;45.58;27.05;;;;;;;;;;5035842;28;20557;-41
2021/12/08 12:04:07;;;;;;;41.65;26.17;;;;;;;;;;5035205;28;20108;-41
2021/12/08 12:06:35;;;;;;;43.22;26.17;;;;;;;;;;5035751;28;20041;-42
2021/12/08 12:09:01;;;;;;;47.58;29.15;;;;;;;;;;5035767;28;20466;-41
2021/12/08 12:11:28;;;;;;;44.72;28.77;;;;;;;;;;5035654;28;20167;-41
2021/12/08 12:13:57;;;;;;;46.80;28.92;;;;;;;;;;5035790;28;20040;-42
2021/12/08 12:16:24;;;;;;;67.32;35.45;;;;;;;;;;5035469;28;20057;-42
2021/12/08 12:18:53;;;;;;;61.85;36.45;;;;;;;;;;5036040;28;20450;-42
2021/12/08 12:21:21;;;;;;;56.70;32.65;;;;;;;;;;5035301;28;20076;-41
2021/12/08 12:23:51;;;;;;;87.20;49.53;;;;;;;;;;5035370;28;20473;-42
2021/12/08 12:26:23;;;;;;;42.63;26.50;;;;;;;;;;5035385;28;20025;-41
2021/12/08 12:29:01;;;;;;;33.63;22.80;;;;;;;;;;5035331;28;20521;-41
2021/12/08 12:31:41;;;;;;;34.05;21.45;;;;;;;;;;5035263;28;20032;-41
2021/12/08 12:34:27;;;;;;;36.75;21.48;;;;;;;;;;5035326;28;20025;-41
2021/12/08 12:36:53;;;;;;;45.15;27.52;;;;;;;;;;5035083;28;20116;-41
2021/12/08 12:39:21;;;;;;;40.80;23.52;;;;;;;;;;5035157;28;20041;-41
2021/12/08 12:42:01;;;;;;;61.33;33.30;;;;;;;;;;5035214;28;20409;-41
2021/12/08 12:44:29;;;;;;;34.95;21.98;;;;;;;;;;5035217;28;20030;-41
2021/12/08 12:47:13;;;;;;;30.70;19.73;;;;;;;;;;5035105;28;20061;-41
2021/12/08 12:49:47;;;;;;;25.65;16.58;;;;;;;;;;5034930;28;20036;-41
2021/12/08 12:52:15;;;;;;;36.67;21.95;;;;;;;;;;5035043;28;20034;-41
2021/12/08 12:54:44;;;;;;;30.13;19.98;;;;;;;;;;5034820;28;20508;-41
2021/12/08 12:57:13;;;;;;;33.47;20.60;;;;;;;;;;5034803;28;20026;-41
2021/12/08 12:59:52;;;;;;;30.65;19.50;;;;;;;;;;5034622;28;20512;-41
2021/12/08 13:02:29;;;;;;;23.88;16.15;;;;;;;;;;5035009;28;20029;-41
2021/12/08 13:05:08;;;;;;;29.90;18.30;;;;;;;;;;5034859;28;20060;-41
2021/12/08 13:07:39;;;;;;;29.23;18.23;;;;;;;;;;5034813;28;20037;-41
2021/12/08 13:10:15;;;;;;;27.70;17.85;;;;;;;;;;5034465;28;20482;-41
2021/12/08 13:12:42;;;;;;;30.13;19.15;;;;;;;;;;5034544;28;20029;-43
2021/12/08 13:15:14;;;;;;;36.85;21.40;;;;;;;;;;5034231;28;20034;-43
2021/12/08 13:17:58;;;;;;;46.85;27.30;;;;;;;;;;5034424;28;20048;-43
2021/12/08 13:20:26;;;;;;;50.50;27.73;;;;;;;;;;5034564;28;20124;-42
2021/12/08 13:22:53;;;;;;;39.20;24.15;;;;;;;;;;5034304;28;20021;-42
2021/12/08 13:25:40;;;;;;;36.08;21.35;;;;;;;;;;5034326;28;20052;-42
2021/12/08 13:28:12;;;;;;;33.17;21.73;;;;;;;;;;5034373;28;20014;-40
2021/12/08 13:30:43;;;;;;;37.83;22.17;;;;;;;;;;5034277;28;20049;-40
2021/12/08 13:33:30;;;;;;;51.57;28.97;;;;;;;;;;5034552;28;20018;-40
2021/12/08 13:35:56;;;;;;;49.58;26.05;;;;;;;;;;5023774;28;20040;-41
2021/12/08 13:38:23;;;;;;;44.13;26.30;;;;;;;;;;5034149;28;20494;-40
2021/12/08 13:40:53;;;;;;;49.67;28.35;;;;;;;;;;5033957;28;20045;-40
2021/12/08 13:43:42;;;;;;;46.15;27.98;;;;;;;;;;5033937;28;20025;-40
2021/12/08 13:46:10;;;;;;;45.17;26.90;;;;;;;;;;5033957;28;20048;-41
2021/12/08 13:48:36;;;;;;;52.70;31.65;;;;;;;;;;5033960;28;20053;-40
2021/12/08 13:51:17;;;;;;;51.67;27.77;;;;;;;;;;5032929;28;20143;-39
2021/12/08 13:53:45;;;;;;;65.43;34.30;;;;;;;;;;5033826;28;20383;-39
2021/12/08 13:56:12;;;;;;;66.80;35.25;;;;;;;;;;5033665;28;20018;-39
2021/12/08 13:58:39;;;;;;;53.83;29.45;;;;;;;;;;5033822;28;20386;-40
2021/12/08 14:01:06;;;;;;;51.85;29.85;;;;;;;;;;5033721;28;20033;-39
2021/12/08 14:03:36;;;;;;;66.55;35.05;;;;;;;;;;5033795;28;20421;-39
2021/12/08 14:06:03;;;;;;;47.60;27.65;;;;;;;;;;5033655;28;20478;-39
2021/12/08 14:08:38;;;;;;;41.95;25.23;;;;;;;;;;5033491;28;20056;-39
2021/12/08 14:11:11;;;;;;;43.10;25.02;;;;;;;;;;5033654;28;20060;-39
2021/12/08 14:13:38;;;;;;;48.65;25.95;;;;;;;;;;5033572;28;20028;-40
2021/12/08 14:16:04;;;;;;;44.85;26.73;;;;;;;;;;5033695;28;20053;-40
2021/12/08 14:18:34;;;;;;;55.97;28.80;;;;;;;;;;5033487;28;20032;-40
2021/12/08 14:21:09;;;;;;;53.70;31.08;;;;;;;;;;5033318;28;20030;-40
2021/12/08 14:23:36;;;;;;;51.80;30.17;;;;;;;;;;5033667;28;20207;-40
2021/12/08 14:26:10;;;;;;;50.17;28.33;;;;;;;;;;5032889;28;20022;-40
2021/12/08 14:28:39;;;;;;;57.78;30.85;;;;;;;;;;5033709;28;20034;-39
2021/12/08 14:31:14;;;;;;;56.00;29.88;;;;;;;;;;5033330;28;20385;-39
2021/12/08 14:33:49;;;;;;;53.58;30.23;;;;;;;;;;5033282;28;20466;-40
2021/12/08 14:36:17;;;;;;;50.92;29.58;;;;;;;;;;5033384;28;20026;-40
2021/12/08 14:38:53;;;;;;;60.88;32.40;;;;;;;;;;5033264;28;20109;-39
2021/12/08 14:41:21;;;;;;;67.18;34.40;;;;;;;;;;5033306;28;20037;-40
2021/12/08 14:43:49;;;;;;;64.50;34.35;;;;;;;;;;5033254;28;20530;-40
2021/12/08 14:46:21;;;;;;;71.50;38.08;;;;;;;;;;5033128;28;20092;-39
2021/12/08 14:48:56;;;;;;;123.45;56.03;;;;;;;;;;5033197;28;20377;-41
2021/12/08 14:51:26;;;;;;;142.38;62.13;;;;;;;;;;5033269;28;20470;-41
2021/12/08 14:53:52;;;;;;;120.38;56.08;;;;;;;;;;5033084;28;20057;-40
2021/12/08 14:56:19;;;;;;;132.20;59.15;;;;;;;;;;5033166;28;20099;-41
2021/12/08 14:58:46;;;;;;;156.10;67.47;;;;;;;;;;5033313;28;20032;-41
2021/12/08 15:01:13;;;;;;;147.90;69.03;;;;;;;;;;5033178;28;20037;-41
2021/12/08 15:03:40;;;;;;;155.85;71.88;;;;;;;;;;5033214;28;20389;-41
2021/12/08 15:06:07;;;;;;;141.45;68.82;;;;;;;;;;5033003;28;20033;-41
2021/12/08 15:08:39;;;;;;;147.25;68.25;;;;;;;;;;5033214;28;20022;-41
2021/12/08 15:11:05;;;;;;;131.82;65.38;;;;;;;;;;5033075;28;20022;-41
2021/12/08 15:13:35;;;;;;;122.00;61.13;;;;;;;;;;5032774;28;20159;-41
2021/12/08 15:16:01;;;;;;;114.68;56.38;;;;;;;;;;5032769;28;20410;-39
2021/12/08 15:18:28;;;;;;;100.28;51.47;;;;;;;;;;5033056;28;20017;-40
2021/12/08 15:21:00;;;;;;;118.38;58.72;;;;;;;;;;5032919;28;20033;-41